Lincoln, Alabama
Current Conditions -  °F | °C
As of 6:35 PM on Friday 21 Nov 2014 (Local Time) from KASN Reporting Station
Clear Clear  
Wind Chill: 11°   Ceiling: Unl
Heat Index: 11°   Visibility: 7mi
Dew Point:   Wind: 0mph
Humidity: 66%   Direction: NA
Pressure: 30.37"   Gusts: NA
Location:  33.61°N, 86.12°W
Report Text: KASN 220035Z AUTO 00000KT 7SM CLR 11/05 A3037 RMK AO2 T01060045
Loading
Personal Weather Stations






























Interactive Weather Map New forecast layout! Learn more

10-Day Weather Forecast

Advertisements
Track Severe Weather on mobile